sensor_id;sensor_type;location;lat;lon;timestamp;pressure;altitude;pressure_sealevel;temperature;humidity
27202;BME280;14717;46.924;15.474;2024-01-07T00:00:04;96456.75;;;5.48;100.00
27202;BME280;14717;46.924;15.474;2024-01-07T00:02:29;96455.94;;;5.48;100.00
27202;BME280;14717;46.924;15.474;2024-01-07T00:04:56;96459.47;;;5.48;100.00
27202;BME280;14717;46.924;15.474;2024-01-07T00:07:22;96458.69;;;5.48;100.00
27202;BME280;14717;46.924;15.474;2024-01-07T00:09:48;96452.41;;;5.48;100.00
27202;BME280;14717;46.924;15.474;2024-01-07T00:12:13;96451.81;;;5.50;100.00
27202;BME280;14717;46.924;15.474;2024-01-07T00:14:39;96448.47;;;5.53;100.00
27202;BME280;14717;46.924;15.474;2024-01-07T00:17:04;96452.03;;;5.54;100.00
27202;BME280;14717;46.924;15.474;2024-01-07T00:19:30;96445.72;;;5.53;100.00
27202;BME280;14717;46.924;15.474;2024-01-07T00:21:57;96444.63;;;5.54;100.00
27202;BME280;14717;46.924;15.474;2024-01-07T00:24:22;96441.31;;;5.57;100.00
27202;BME280;14717;46.924;15.474;2024-01-07T00:26:50;96443.53;;;5.55;100.00
27202;BME280;14717;46.924;15.474;2024-01-07T00:29:15;96437.22;;;5.55;100.00
27202;BME280;14717;46.924;15.474;2024-01-07T00:31:41;96439.16;;;5.54;100.00
27202;BME280;14717;46.924;15.474;2024-01-07T00:34:06;96434.75;;;5.53;100.00
27202;BME280;14717;46.924;15.474;2024-01-07T00:36:31;96437.44;;;5.58;100.00
27202;BME280;14717;46.924;15.474;2024-01-07T00:38:57;96440.72;;;5.60;100.00
27202;BME280;14717;46.924;15.474;2024-01-07T00:41:22;96438.47;;;5.62;100.00
27202;BME280;14717;46.924;15.474;2024-01-07T00:43:48;96440.72;;;5.60;100.00
27202;BME280;14717;46.924;15.474;2024-01-07T00:46:13;96436.03;;;5.61;100.00
27202;BME280;14717;46.924;15.474;2024-01-07T00:48:39;96425.59;;;5.63;100.00
27202;BME280;14717;46.924;15.474;2024-01-07T00:51:04;96437.34;;;5.63;100.00
27202;BME280;14717;46.924;15.474;2024-01-07T00:53:30;96436.03;;;5.61;100.00
27202;BME280;14717;46.924;15.474;2024-01-07T00:55:55;96436.25;;;5.64;100.00
27202;BME280;14717;46.924;15.474;2024-01-07T00:58:21;96429.13;;;5.63;100.00
27202;BME280;14717;46.924;15.474;2024-01-07T01:00:46;96431.06;;;5.63;100.00
27202;BME280;14717;46.924;15.474;2024-01-07T01:03:11;96437.66;;;5.62;100.00
27202;BME280;14717;46.924;15.474;2024-01-07T01:05:36;96434.31;;;5.65;100.00
27202;BME280;14717;46.924;15.474;2024-01-07T01:08:02;96428.84;;;5.65;100.00
27202;BME280;14717;46.924;15.474;2024-01-07T01:10:27;96438.47;;;5.62;100.00
27202;BME280;14717;46.924;15.474;2024-01-07T01:12:53;96434.63;;;5.63;100.00
27202;BME280;14717;46.924;15.474;2024-01-07T01:15:19;96426.94;;;5.65;100.00
27202;BME280;14717;46.924;15.474;2024-01-07T01:17:45;96434.31;;;5.65;100.00
27202;BME280;14717;46.924;15.474;2024-01-07T01:20:10;96429.34;;;5.67;100.00
27202;BME280;14717;46.924;15.474;2024-01-07T01:22:36;96435.38;;;5.69;100.00
27202;BME280;14717;46.924;15.474;2024-01-07T01:25:01;96433.22;;;5.66;100.00
27202;BME280;14717;46.924;15.474;2024-01-07T01:27:28;96437.91;;;5.65;100.00
27202;BME280;14717;46.924;15.474;2024-01-07T01:29:53;96432.09;;;5.67;100.00
27202;BME280;14717;46.924;15.474;2024-01-07T01:32:19;96432.41;;;5.65;100.00
27202;BME280;14717;46.924;15.474;2024-01-07T01:34:44;96431.28;;;5.66;100.00
27202;BME280;14717;46.924;15.474;2024-01-07T01:37:09;96430.19;;;5.67;100.00
27202;BME280;14717;46.924;15.474;2024-01-07T01:39:35;96423.06;;;5.66;100.00
27202;BME280;14717;46.924;15.474;2024-01-07T01:42:00;96427.66;;;5.71;100.00
27202;BME280;14717;46.924;15.474;2024-01-07T01:44:25;96429.34;;;5.67;100.00
27202;BME280;14717;46.924;15.474;2024-01-07T01:46:55;96426.03;;;5.70;100.00
27202;BME280;14717;46.924;15.474;2024-01-07T01:49:21;96422.78;;;5.68;100.00
27202;BME280;14717;46.924;15.474;2024-01-07T01:51:47;96429.34;;;5.67;100.00
27202;BME280;14717;46.924;15.474;2024-01-07T01:54:12;96418.41;;;5.67;100.00
27202;BME280;14717;46.924;15.474;2024-01-07T01:56:38;96412.13;;;5.66;100.00
27202;BME280;14717;46.924;15.474;2024-01-07T01:59:04;96409.47;;;5.61;100.00
27202;BME280;14717;46.924;15.474;2024-01-07T02:01:30;96411.91;;;5.63;100.00
27202;BME280;14717;46.924;15.474;2024-01-07T02:03:56;96410.50;;;5.65;100.00
27202;BME280;14717;46.924;15.474;2024-01-07T02:06:22;96414.84;;;5.66;100.00
27202;BME280;14717;46.924;15.474;2024-01-07T02:08:48;96414.06;;;5.66;100.00
27202;BME280;14717;46.924;15.474;2024-01-07T02:11:15;96416.56;;;5.62;100.00
27202;BME280;14717;46.924;15.474;2024-01-07T02:13:41;96415.22;;;5.60;100.00
27202;BME280;14717;46.924;15.474;2024-01-07T02:16:06;96416.66;;;5.57;100.00
27202;BME280;14717;46.924;15.474;2024-01-07T02:18:32;96410.03;;;5.58;100.00
27202;BME280;14717;46.924;15.474;2024-01-07T02:20:57;96417.47;;;5.58;100.00
27202;BME280;14717;46.924;15.474;2024-01-07T02:23:22;96407.00;;;5.60;100.00
27202;BME280;14717;46.924;15.474;2024-01-07T02:25:48;96417.16;;;5.59;100.00
27202;BME280;14717;46.924;15.474;2024-01-07T02:28:13;96409.47;;;5.61;100.00
27202;BME280;14717;46.924;15.474;2024-01-07T02:30:38;96404.50;;;5.63;100.00
27202;BME280;14717;46.924;15.474;2024-01-07T02:33:04;96413.25;;;5.65;100.00
27202;BME280;14717;46.924;15.474;2024-01-07T02:35:29;96409.69;;;5.65;100.00
27202;BME280;14717;46.924;15.474;2024-01-07T02:37:55;96411.81;;;5.68;100.00
27202;BME280;14717;46.924;15.474;2024-01-07T02:40:20;96417.38;;;5.63;100.00
27202;BME280;14717;46.924;15.474;2024-01-07T02:42:46;96416.66;;;5.57;100.00
27202;BME280;14717;46.924;15.474;2024-01-07T02:45:11;96409.47;;;5.61;100.00
27202;BME280;14717;46.924;15.474;2024-01-07T02:47:36;96408.56;;;5.66;100.00
27202;BME280;14717;46.924;15.474;2024-01-07T02:50:02;96410.19;;;5.67;100.00
27202;BME280;14717;46.924;15.474;2024-01-07T02:52:28;96396.19;;;5.68;100.00
27202;BME280;14717;46.924;15.474;2024-01-07T02:54:53;96400.56;;;5.69;100.00
27202;BME280;14717;46.924;15.474;2024-01-07T02:57:18;96403.59;;;5.68;100.00
27202;BME280;14717;46.924;15.474;2024-01-07T02:59:44;96404.19;;;5.65;100.00
27202;BME280;14717;46.924;15.474;2024-01-07T03:02:09;96401.97;;;5.67;100.00
27202;BME280;14717;46.924;15.474;2024-01-07T03:04:34;96395.69;;;5.66;100.00
27202;BME280;14717;46.924;15.474;2024-01-07T03:07:00;96401.97;;;5.67;100.00
27202;BME280;14717;46.924;15.474;2024-01-07T03:09:25;96399.63;;;5.60;100.00
27202;BME280;14717;46.924;15.474;2024-01-07T03:11:50;96400.72;;;5.59;100.00
27202;BME280;14717;46.924;15.474;2024-01-07T03:14:16;96408.66;;;5.61;100.00
27202;BME280;14717;46.924;15.474;2024-01-07T03:16:45;96402.88;;;5.62;100.00
27202;BME280;14717;46.924;15.474;2024-01-07T03:19:10;96408.06;;;5.64;100.00
27202;BME280;14717;46.924;15.474;2024-01-07T03:21:36;96413.84;;;5.62;100.00
27202;BME280;14717;46.924;15.474;2024-01-07T03:24:01;96410.03;;;5.58;100.00
27202;BME280;14717;46.924;15.474;2024-01-07T03:26:29;96407.69;;;5.52;100.00
27202;BME280;14717;46.924;15.474;2024-01-07T03:28:58;96407.69;;;5.52;100.00
27202;BME280;14717;46.924;15.474;2024-01-07T03:31:25;96416.50;;;5.49;100.00
27202;BME280;14717;46.924;15.474;2024-01-07T03:33:50;96413.47;;;5.50;100.00
27202;BME280;14717;46.924;15.474;2024-01-07T03:36:16;96412.94;;;5.48;100.00
27202;BME280;14717;46.924;15.474;2024-01-07T03:38:41;96412.94;;;5.48;100.00
27202;BME280;14717;46.924;15.474;2024-01-07T03:41:07;96411.84;;;5.49;100.00
27202;BME280;14717;46.924;15.474;2024-01-07T03:43:33;96418.97;;;5.50;100.00
27202;BME280;14717;46.924;15.474;2024-01-07T03:45:58;96415.69;;;5.48;100.00
27202;BME280;14717;46.924;15.474;2024-01-07T03:48:24;96415.47;;;5.45;100.00
27202;BME280;14717;46.924;15.474;2024-01-07T03:50:50;96419.09;;;5.41;100.00
27202;BME280;14717;46.924;15.474;2024-01-07T03:53:15;96423.53;;;5.37;100.00
27202;BME280;14717;46.924;15.474;2024-01-07T03:55:41;96421.38;;;5.34;100.00
27202;BME280;14717;46.924;15.474;2024-01-07T03:58:06;96424.41;;;5.32;100.00
27202;BME280;14717;46.924;15.474;2024-01-07T04:00:32;96425.22;;;5.33;100.00
27202;BME280;14717;46.924;15.474;2024-01-07T04:02:58;96426.84;;;5.34;100.00
27202;BME280;14717;46.924;15.474;2024-01-07T04:05:23;96421.06;;;5.35;100.00
27202;BME280;14717;46.924;15.474;2024-01-07T04:07:49;96426.56;;;5.35;100.00
27202;BME280;14717;46.924;15.474;2024-01-07T04:10:17;96437.72;;;5.39;100.00
27202;BME280;14717;46.924;15.474;2024-01-07T04:12:43;96433.88;;;5.40;100.00
27202;BME280;14717;46.924;15.474;2024-01-07T04:15:09;96432.25;;;5.39;100.00
27202;BME280;14717;46.924;15.474;2024-01-07T04:17:35;96438.78;;;5.43;100.00
27202;BME280;14717;46.924;15.474;2024-01-07T04:20:00;96445.44;;;5.37;100.00
27202;BME280;14717;46.924;15.474;2024-01-07T04:22:25;96442.38;;;5.38;100.00
27202;BME280;14717;46.924;15.474;2024-01-07T04:24:51;96450.09;;;5.36;100.00
27202;BME280;14717;46.924;15.474;2024-01-07T04:27:16;96451.25;;;5.30;100.00
27202;BME280;14717;46.924;15.474;2024-01-07T04:29:41;96449.59;;;5.34;100.00
27202;BME280;14717;46.924;15.474;2024-01-07T04:32:07;96460.53;;;5.34;100.00
27202;BME280;14717;46.924;15.474;2024-01-07T04:34:32;96455.50;;;5.41;100.00
27202;BME280;14717;46.924;15.474;2024-01-07T04:36:57;96458.25;;;5.41;100.00
27202;BME280;14717;46.924;15.474;2024-01-07T04:39:23;96450.25;;;5.45;100.00
27202;BME280;14717;46.924;15.474;2024-01-07T04:41:48;96452.41;;;5.48;100.00
27202;BME280;14717;46.924;15.474;2024-01-07T04:44:14;96458.38;;;5.49;100.00
27202;BME280;14717;46.924;15.474;2024-01-07T04:46:39;96467.69;;;5.48;100.00
27202;BME280;14717;46.924;15.474;2024-01-07T04:49:05;96467.47;;;5.63;100.00
27202;BME280;14717;46.924;15.474;2024-01-07T04:51:31;96461.34;;;5.71;100.00
27202;BME280;14717;46.924;15.474;2024-01-07T04:53:56;96468.03;;;5.65;100.00
27202;BME280;14717;46.924;15.474;2024-01-07T04:56:22;96470.91;;;5.55;100.00
27202;BME280;14717;46.924;15.474;2024-01-07T04:58:47;96464.22;;;5.61;100.00
27202;BME280;14717;46.924;15.474;2024-01-07T05:01:12;96471.56;;;5.66;100.00
27202;BME280;14717;46.924;15.474;2024-01-07T05:03:38;96468.13;;;5.79;100.00
27202;BME280;14717;46.924;15.474;2024-01-07T05:06:04;96471.19;;;5.72;100.00
27202;BME280;14717;46.924;15.474;2024-01-07T05:08:29;96474.81;;;5.68;100.00
27202;BME280;14717;46.924;15.474;2024-01-07T05:10:55;96471.94;;;5.59;100.00
27202;BME280;14717;46.924;15.474;2024-01-07T05:13:21;96479.63;;;5.57;100.00
27202;BME280;14717;46.924;15.474;2024-01-07T05:15:47;96476.13;;;5.52;100.00
27202;BME280;14717;46.924;15.474;2024-01-07T05:18:20;96480.50;;;5.53;100.00
27202;BME280;14717;46.924;15.474;2024-01-07T05:20:45;96487.91;;;5.52;100.00
27202;BME280;14717;46.924;15.474;2024-01-07T05:23:11;96485.47;;;5.51;100.00
27202;BME280;14717;46.924;15.474;2024-01-07T05:25:36;96488.00;;;5.48;100.00
27202;BME280;14717;46.924;15.474;2024-01-07T05:28:02;96484.97;;;5.49;100.00
27202;BME280;14717;46.924;15.474;2024-01-07T05:30:27;96492.34;;;5.48;100.00
27202;BME280;14717;46.924;15.474;2024-01-07T05:32:52;96492.34;;;5.48;100.00
27202;BME280;14717;46.924;15.474;2024-01-07T05:35:18;96497.81;;;5.48;100.00
27202;BME280;14717;46.924;15.474;2024-01-07T05:37:43;96502.56;;;5.43;100.00
27202;BME280;14717;46.924;15.474;2024-01-07T05:40:09;96498.44;;;5.46;100.00
27202;BME280;14717;46.924;15.474;2024-01-07T05:42:35;96501.69;;;5.48;100.00
27202;BME280;14717;46.924;15.474;2024-01-07T05:45:00;96501.47;;;5.44;100.00
27202;BME280;14717;46.924;15.474;2024-01-07T05:47:25;96497.16;;;5.38;100.00
27202;BME280;14717;46.924;15.474;2024-01-07T05:49:51;96502.09;;;5.36;100.00
27202;BME280;14717;46.924;15.474;2024-01-07T05:52:17;96498.56;;;5.36;100.00
27202;BME280;14717;46.924;15.474;2024-01-07T05:54:42;96502.91;;;5.37;100.00
27202;BME280;14717;46.924;15.474;2024-01-07T05:57:07;96512.75;;;5.38;100.00
27202;BME280;14717;46.924;15.474;2024-01-07T05:59:33;96509.50;;;5.36;100.00
27202;BME280;14717;46.924;15.474;2024-01-07T06:01:59;96511.69;;;5.34;100.00
27202;BME280;14717;46.924;15.474;2024-01-07T06:04:24;96510.09;;;5.33;100.00
27202;BME280;14717;46.924;15.474;2024-01-07T06:06:49;96511.19;;;5.32;100.00
27202;BME280;14717;46.924;15.474;2024-01-07T06:09:15;96505.72;;;5.32;100.00
27202;BME280;14717;46.924;15.474;2024-01-07T06:11:40;96509.88;;;5.29;100.00
27202;BME280;14717;46.924;15.474;2024-01-07T06:14:05;96509.63;;;5.26;100.00
27202;BME280;14717;46.924;15.474;2024-01-07T06:16:31;96512.38;;;5.26;100.00
27202;BME280;14717;46.924;15.474;2024-01-07T06:18:56;96510.16;;;5.28;100.00
27202;BME280;14717;46.924;15.474;2024-01-07T06:21:22;96517.31;;;5.24;100.00
27202;BME280;14717;46.924;15.474;2024-01-07T06:23:47;96516.16;;;5.30;100.00
27202;BME280;14717;46.924;15.474;2024-01-07T06:26:13;96519.16;;;5.28;100.00
27202;BME280;14717;46.924;15.474;2024-01-07T06:28:38;96516.66;;;5.32;100.00
27202;BME280;14717;46.924;15.474;2024-01-07T06:31:03;96525.44;;;5.29;100.00
27202;BME280;14717;46.924;15.474;2024-01-07T06:33:29;96516.72;;;5.27;100.00
27202;BME280;14717;46.924;15.474;2024-01-07T06:35:54;96523.38;;;5.21;100.00
27202;BME280;14717;46.924;15.474;2024-01-07T06:38:20;96523.38;;;5.21;100.00
27202;BME280;14717;46.924;15.474;2024-01-07T06:40:45;96530.94;;;5.29;100.00
27202;BME280;14717;46.924;15.474;2024-01-07T06:43:11;96530.13;;;5.28;100.00
27202;BME280;14717;46.924;15.474;2024-01-07T06:45:36;96538.63;;;5.27;100.00
27202;BME280;14717;46.924;15.474;2024-01-07T06:48:01;96534.56;;;5.24;100.00
27202;BME280;14717;46.924;15.474;2024-01-07T06:50:27;96534.34;;;5.21;100.00
27202;BME280;14717;46.924;15.474;2024-01-07T06:52:52;96533.28;;;5.17;100.00
27202;BME280;14717;46.924;15.474;2024-01-07T06:55:17;96540.91;;;5.20;100.00
27202;BME280;14717;46.924;15.474;2024-01-07T06:57:43;96534.91;;;5.18;100.00
27202;BME280;14717;46.924;15.474;2024-01-07T07:00:08;96549.56;;;5.27;100.00
27202;BME280;14717;46.924;15.474;2024-01-07T07:02:34;96543.28;;;5.26;100.00
27202;BME280;14717;46.924;15.474;2024-01-07T07:04:59;96544.66;;;5.24;100.00
27202;BME280;14717;46.924;15.474;2024-01-07T07:07:24;96544.72;;;5.19;100.00
27202;BME280;14717;46.924;15.474;2024-01-07T07:09:50;96545.78;;;5.23;100.00
27202;BME280;14717;46.924;15.474;2024-01-07T07:12:17;96546.38;;;5.20;100.00
27202;BME280;14717;46.924;15.474;2024-01-07T07:14:43;96540.91;;;5.20;100.00
27202;BME280;14717;46.924;15.474;2024-01-07T07:17:08;96553.44;;;5.26;100.00
27202;BME280;14717;46.924;15.474;2024-01-07T07:19:34;96554.00;;;5.23;100.00
27202;BME280;14717;46.924;15.474;2024-01-07T07:21:59;96554.81;;;5.23;100.00
27202;BME280;14717;46.924;15.474;2024-01-07T07:24:24;96555.16;;;5.17;100.00
27202;BME280;14717;46.924;15.474;2024-01-07T07:26:50;96557.59;;;5.18;100.00
27202;BME280;14717;46.924;15.474;2024-01-07T07:29:15;96562.75;;;5.25;100.00
27202;BME280;14717;46.924;15.474;2024-01-07T07:31:40;96565.41;;;5.30;100.00
27202;BME280;14717;46.924;15.474;2024-01-07T07:34:08;96559.44;;;5.28;100.00
27202;BME280;14717;46.924;15.474;2024-01-07T07:36:33;96569.06;;;5.20;100.00
27202;BME280;14717;46.924;15.474;2024-01-07T07:38:59;96577.28;;;5.20;100.00
27202;BME280;14717;46.924;15.474;2024-01-07T07:41:24;96567.41;;;5.24;100.00
27202;BME280;14717;46.924;15.474;2024-01-07T07:43:49;96577.28;;;5.20;100.00
27202;BME280;14717;46.924;15.474;2024-01-07T07:46:15;96589.06;;;5.21;100.00
27202;BME280;14717;46.924;15.474;2024-01-07T07:48:41;96569.38;;;5.19;100.00
27202;BME280;14717;46.924;15.474;2024-01-07T07:51:07;96578.13;;;5.21;100.00
27202;BME280;14717;46.924;15.474;2024-01-07T07:53:32;96591.81;;;5.21;100.00
27202;BME280;14717;46.924;15.474;2024-01-07T07:55:57;96579.72;;;5.22;100.00
27202;BME280;14717;46.924;15.474;2024-01-07T07:58:23;96592.91;;;5.20;100.00
27202;BME280;14717;46.924;15.474;2024-01-07T08:00:48;96591.25;;;5.19;100.00
27202;BME280;14717;46.924;15.474;2024-01-07T08:03:13;96587.94;;;5.22;100.00
27202;BME280;14717;46.924;15.474;2024-01-07T08:05:39;96583.59;;;5.21;100.00
27202;BME280;14717;46.924;15.474;2024-01-07T08:08:07;96589.59;;;5.23;100.00
27202;BME280;14717;46.924;15.474;2024-01-07T08:10:32;96588.56;;;5.14;100.00
27202;BME280;14717;46.924;15.474;2024-01-07T08:12:59;96593.47;;;5.17;100.00
27202;BME280;14717;46.924;15.474;2024-01-07T08:15:24;96596.44;;;5.20;100.00
27202;BME280;14717;46.924;15.474;2024-01-07T08:17:51;96596.72;;;5.19;100.00
27202;BME280;14717;46.924;15.474;2024-01-07T08:20:16;96592.91;;;5.20;100.00
27202;BME280;14717;46.924;15.474;2024-01-07T08:22:42;96596.72;;;5.19;100.00
27202;BME280;14717;46.924;15.474;2024-01-07T08:25:07;96600.31;;;5.19;100.00
27202;BME280;14717;46.924;15.474;2024-01-07T08:27:36;96601.41;;;5.18;100.00
27202;BME280;14717;46.924;15.474;2024-01-07T08:30:03;96609.31;;;5.20;100.00
27202;BME280;14717;46.924;15.474;2024-01-07T08:32:28;96611.00;;;5.16;100.00
27202;BME280;14717;46.924;15.474;2024-01-07T08:34:54;96608.50;;;5.19;100.00
27202;BME280;14717;46.924;15.474;2024-01-07T08:37:19;96605.72;;;5.24;100.00
27202;BME280;14717;46.924;15.474;2024-01-07T08:39:45;96618.81;;;5.27;100.00
27202;BME280;14717;46.924;15.474;2024-01-07T08:42:10;96609.72;;;5.32;100.00
27202;BME280;14717;46.924;15.474;2024-01-07T08:44:35;96615.72;;;5.34;100.00
27202;BME280;14717;46.924;15.474;2024-01-07T08:47:01;96614.41;;;5.31;100.00
27202;BME280;14717;46.924;15.474;2024-01-07T08:49:28;96620.69;;;5.32;100.00
27202;BME280;14717;46.924;15.474;2024-01-07T08:51:54;96622.84;;;5.35;100.00
27202;BME280;14717;46.924;15.474;2024-01-07T08:54:21;96619.00;;;5.36;100.00
27202;BME280;14717;46.924;15.474;2024-01-07T08:56:46;96629.66;;;5.37;100.00
27202;BME280;14717;46.924;15.474;2024-01-07T08:59:12;96629.59;;;5.42;100.00
27202;BME280;14717;46.924;15.474;2024-01-07T09:01:37;96626.03;;;5.42;100.00
27202;BME280;14717;46.924;15.474;2024-01-07T09:04:02;96632.03;;;5.44;100.00
27202;BME280;14717;46.924;15.474;2024-01-07T09:06:28;96633.69;;;5.45;100.00
27202;BME280;14717;46.924;15.474;2024-01-07T09:08:53;96636.66;;;5.48;100.00
27202;BME280;14717;46.924;15.474;2024-01-07T09:11:19;96645.63;;;5.53;100.00
27202;BME280;14717;46.924;15.474;2024-01-07T09:13:45;96649.78;;;5.51;100.00
27202;BME280;14717;46.924;15.474;2024-01-07T09:16:13;96642.06;;;5.53;100.00
27202;BME280;14717;46.924;15.474;2024-01-07T09:18:39;96653.84;;;5.53;100.00
27202;BME280;14717;46.924;15.474;2024-01-07T09:21:04;96651.66;;;5.55;100.00
27202;BME280;14717;46.924;15.474;2024-01-07T09:23:29;96657.13;;;5.55;100.00
27202;BME280;14717;46.924;15.474;2024-01-07T09:25:55;96660.66;;;5.56;100.00
27202;BME280;14717;46.924;15.474;2024-01-07T09:28:20;96661.19;;;5.58;100.00
27202;BME280;14717;46.924;15.474;2024-01-07T09:30:46;96665.34;;;5.55;100.00
27202;BME280;14717;46.924;15.474;2024-01-07T09:33:11;96653.78;;;5.58;100.00
27202;BME280;14717;46.924;15.474;2024-01-07T09:35:36;96664.72;;;5.58;100.00
27202;BME280;14717;46.924;15.474;2024-01-07T09:38:02;96663.13;;;5.57;100.00
27202;BME280;14717;46.924;15.474;2024-01-07T09:40:29;96660.09;;;5.59;100.00
27202;BME280;14717;46.924;15.474;2024-01-07T09:42:55;96661.19;;;5.58;100.00
27202;BME280;14717;46.924;15.474;2024-01-07T09:45:20;96660.84;;;5.64;100.00
27202;BME280;14717;46.924;15.474;2024-01-07T09:47:47;96661.06;;;5.68;100.00
27202;BME280;14717;46.924;15.474;2024-01-07T09:50:12;96661.69;;;5.60;100.00
27202;BME280;14717;46.924;15.474;2024-01-07T09:52:43;96658.63;;;5.66;100.00
27202;BME280;14717;46.924;15.474;2024-01-07T09:55:09;96659.44;;;5.67;100.00
27202;BME280;14717;46.924;15.474;2024-01-07T09:57:40;96647.16;;;5.64;100.00
27202;BME280;14717;46.924;15.474;2024-01-07T10:00:06;96661.66;;;5.65;100.00
27202;BME280;14717;46.924;15.474;2024-01-07T10:02:33;96648.47;;;5.67;100.00
27202;BME280;14717;46.924;15.474;2024-01-07T10:04:59;96644.63;;;5.68;100.00
27202;BME280;14717;46.924;15.474;2024-01-07T10:07:24;96646.50;;;5.72;100.00
27202;BME280;14717;46.924;15.474;2024-01-07T10:09:50;96651.44;;;5.75;100.00
27202;BME280;14717;46.924;15.474;2024-01-07T10:12:15;96651.44;;;5.75;100.00
27202;BME280;14717;46.924;15.474;2024-01-07T10:14:41;96652.78;;;5.73;100.00
27202;BME280;14717;46.924;15.474;2024-01-07T10:17:16;96651.97;;;5.77;100.00
27202;BME280;14717;46.924;15.474;2024-01-07T10:19:44;96649.75;;;5.79;100.00
27202;BME280;14717;46.924;15.474;2024-01-07T10:22:12;96646.47;;;5.77;100.00
27202;BME280;14717;46.924;15.474;2024-01-07T10:24:39;96654.41;;;5.79;100.00
27202;BME280;14717;46.924;15.474;2024-01-07T10:27:05;96655.72;;;5.81;100.00
27202;BME280;14717;46.924;15.474;2024-01-07T10:29:31;96653.50;;;5.83;100.00
27202;BME280;14717;46.924;15.474;2024-01-07T10:32:00;96647.22;;;5.83;100.00
27202;BME280;14717;46.924;15.474;2024-01-07T10:34:32;96651.53;;;5.89;100.00
27202;BME280;14717;46.924;15.474;2024-01-07T10:37:00;96641.97;;;5.86;100.00
27202;BME280;14717;46.924;15.474;2024-01-07T10:39:25;96650.72;;;5.88;100.00
27202;BME280;14717;46.924;15.474;2024-01-07T10:41:52;96640.00;;;5.92;100.00
27202;BME280;14717;46.924;15.474;2024-01-07T10:44:22;96635.91;;;5.89;100.00
27202;BME280;14717;46.924;15.474;2024-01-07T10:46:48;96644.06;;;5.94;100.00
27202;BME280;14717;46.924;15.474;2024-01-07T10:49:19;96640.53;;;5.93;100.00
27202;BME280;14717;46.924;15.474;2024-01-07T10:52:06;96638.81;;;5.97;100.00
27202;BME280;14717;46.924;15.474;2024-01-07T10:54:33;96647.84;;;5.98;100.00
27202;BME280;14717;46.924;15.474;2024-01-07T10:57:34;96644.50;;;6.01;100.00
27202;BME280;14717;46.924;15.474;2024-01-07T11:00:06;96641.47;;;6.02;100.00
27202;BME280;14717;46.924;15.474;2024-01-07T11:02:41;96652.44;;;6.02;100.00
27202;BME280;14717;46.924;15.474;2024-01-07T11:08:18;96640.09;;;6.05;100.00
27202;BME280;14717;46.924;15.474;2024-01-07T11:10:50;96642.63;;;6.01;100.00
27202;BME280;14717;46.924;15.474;2024-01-07T11:13:38;96642.78;;;6.10;100.00
27202;BME280;14717;46.924;15.474;2024-01-07T11:16:04;96639.47;;;6.08;100.00
27202;BME280;14717;46.924;15.474;2024-01-07T11:18:31;96629.56;;;6.12;100.00
27202;BME280;14717;46.924;15.474;2024-01-07T11:21:02;96628.44;;;6.13;100.00
27202;BME280;14717;46.924;15.474;2024-01-07T11:23:43;96629.00;;;6.15;100.00
27202;BME280;14717;46.924;15.474;2024-01-07T11:26:08;96626.78;;;6.17;100.00
27202;BME280;14717;46.924;15.474;2024-01-07T11:28:56;96634.91;;;6.22;98.96
27202;BME280;14717;46.924;15.474;2024-01-07T11:34:10;96639.81;;;6.25;97.67
27202;BME280;14717;46.924;15.474;2024-01-07T11:36:36;96635.94;;;6.26;97.41
27202;BME280;14717;46.924;15.474;2024-01-07T11:39:03;96637.59;;;6.27;96.38
27202;BME280;14717;46.924;15.474;2024-01-07T11:41:32;96637.00;;;6.30;98.78
27202;BME280;14717;46.924;15.474;2024-01-07T11:43:59;96630.94;;;6.33;97.69
27202;BME280;14717;46.924;15.474;2024-01-07T11:46:26;96637.22;;;6.33;97.89
27202;BME280;14717;46.924;15.474;2024-01-07T11:48:57;96637.97;;;6.38;93.91
27202;BME280;14717;46.924;15.474;2024-01-07T11:51:26;96629.16;;;6.41;93.24
27202;BME280;14717;46.924;15.474;2024-01-07T11:53:52;96641.75;;;6.42;96.49
27202;BME280;14717;46.924;15.474;2024-01-07T11:56:18;96635.94;;;6.44;95.08
27202;BME280;14717;46.924;15.474;2024-01-07T11:58:44;96627.72;;;6.44;94.42
27202;BME280;14717;46.924;15.474;2024-01-07T12:01:09;96637.22;;;6.51;95.32
27202;BME280;14717;46.924;15.474;2024-01-07T12:03:34;96643.22;;;6.53;93.31
27202;BME280;14717;46.924;15.474;2024-01-07T12:06:00;96627.81;;;6.57;88.95
27202;BME280;14717;46.924;15.474;2024-01-07T12:08:25;96627.50;;;6.59;93.45
27202;BME280;14717;46.924;15.474;2024-01-07T12:10:51;96630.16;;;6.64;89.73
27202;BME280;14717;46.924;15.474;2024-01-07T12:13:17;96629.84;;;6.65;89.42
27202;BME280;14717;46.924;15.474;2024-01-07T12:15:42;96626.00;;;6.66;90.20
27202;BME280;14717;46.924;15.474;2024-01-07T12:18:09;96626.00;;;6.66;95.03
27202;BME280;14717;46.924;15.474;2024-01-07T12:20:34;96623.56;;;6.65;97.28
27202;BME280;14717;46.924;15.474;2024-01-07T12:23:07;96631.22;;;6.68;94.11
27202;BME280;14717;46.924;15.474;2024-01-07T12:25:33;96625.41;;;6.69;95.14
27202;BME280;14717;46.924;15.474;2024-01-07T12:27:58;96620.94;;;6.73;96.93
27202;BME280;14717;46.924;15.474;2024-01-07T12:30:24;96623.19;;;6.71;91.16
27202;BME280;14717;46.924;15.474;2024-01-07T12:32:51;96628.88;;;6.75;93.95
27202;BME280;14717;46.924;15.474;2024-01-07T12:35:17;96630.00;;;6.74;93.81
27202;BME280;14717;46.924;15.474;2024-01-07T12:37:42;96627.78;;;6.76;95.27
27202;BME280;14717;46.924;15.474;2024-01-07T12:40:09;96631.94;;;6.73;92.93
27202;BME280;14717;46.924;15.474;2024-01-07T12:42:36;96628.09;;;6.74;96.51
27202;BME280;14717;46.924;15.474;2024-01-07T12:45:02;96629.19;;;6.73;98.84
27202;BME280;14717;46.924;15.474;2024-01-07T12:47:28;96638.56;;;6.72;100.00
27202;BME280;14717;46.924;15.474;2024-01-07T12:49:53;96632.59;;;6.65;100.00